Time;durP1;ratioP1;P1;durP2;ratioP2;P2;SDS_P1;SDS_P2;PMS_P1;PMS_P2;Temp;Humidity;BMP_temperature;BMP_pressure;BME280_temperature;BME280_humidity;BME280_pressure;Samples;Min_cycle;Max_cycle;Signal;HPM_P1;HPM_P2
2021/05/06 00:14:36;;;;;;;3.42;1.20;;;;;;;8.48;60.61;94994.75;5009194;28;20041;-71
2021/05/06 00:33:19;;;;;;;2.85;1.17;;;;;;;8.68;59.70;95009.50;5008483;28;20489;-73
2021/05/06 00:35:45;;;;;;;3.03;1.50;;;;;;;8.66;60.07;94998.41;5007249;28;20061;-72
2021/05/06 00:38:14;;;;;;;4.57;1.05;;;;;;;8.72;59.77;94997.22;5010297;28;20109;-72
2021/05/06 01:07:10;;;;;;;3.88;1.50;;;;;;;8.51;59.80;94988.88;5008381;28;20072;-72
2021/05/06 01:09:52;;;;;;;4.60;1.60;;;;;;;8.32;59.65;94985.50;5008220;28;20484;-72
2021/05/06 01:12:17;;;;;;;3.65;1.27;;;;;;;8.42;59.97;94995.16;5011064;28;20083;-72
2021/05/06 01:14:43;;;;;;;2.30;1.20;;;;;;;8.01;60.76;94966.69;5013711;28;20109;-72
2021/05/06 01:17:08;;;;;;;5.40;1.55;;;;;;;7.66;61.74;94981.31;5011502;28;20057;-71
2021/05/06 01:19:34;;;;;;;3.85;1.60;;;;;;;8.03;61.49;94980.44;5011612;28;20062;-72
2021/05/06 01:21:59;;;;;;;3.10;1.63;;;;;;;7.91;61.79;94982.75;5011407;28;20075;-72
2021/05/06 01:24:25;;;;;;;2.83;1.13;;;;;;;8.03;61.01;94973.25;5011866;28;20447;-72
2021/05/06 01:29:42;;;;;;;2.50;1.40;;;;;;;7.48;62.14;94982.91;5013326;28;20487;-71
2021/05/06 01:34:50;;;;;;;2.17;1.23;;;;;;;7.71;61.87;94965.34;5011543;28;20469;-72
2021/05/06 01:37:21;;;;;;;2.03;1.05;;;;;;;7.56;62.13;94982.25;5011186;28;20065;-72
2021/05/06 01:42:54;;;;;;;4.15;1.67;;;;;;;7.96;61.26;94967.56;5008252;28;20046;-72
2021/05/06 01:59:08;;;;;;;3.42;1.35;;;;;;;8.17;59.72;94961.91;5010760;28;20522;-73
2021/05/06 02:01:26;;;;;;;3.50;1.05;;;;;;;8.20;59.96;94948.88;5010256;28;20504;-72
2021/05/06 02:03:52;;;;;;;4.20;1.27;;;;;;;8.29;59.70;94944.47;5009984;28;20049;-72
2021/05/06 02:06:17;;;;;;;3.15;1.42;;;;;;;8.21;60.18;94947.78;5009679;28;20492;-73
2021/05/06 02:08:43;;;;;;;4.15;1.38;;;;;;;7.74;60.45;94949.69;5010487;28;20026;-72
2021/05/06 02:11:08;;;;;;;4.72;1.33;;;;;;;7.71;60.83;94944.94;5012629;28;20597;-74
2021/05/06 02:13:33;;;;;;;3.30;1.10;;;;;;;7.47;61.75;94953.03;5010233;28;20117;-71
2021/05/06 02:16:04;;;;;;;3.90;1.40;;;;;;;7.73;61.12;94947.31;5010623;28;20069;-72
2021/05/06 02:18:33;;;;;;;2.53;1.27;;;;;;;7.72;60.05;94929.84;5009046;28;20050;-71
2021/05/06 02:20:58;;;;;;;5.47;1.83;;;;;;;7.72;60.12;94930.63;5009180;28;20018;-72
2021/05/06 02:23:23;;;;;;;1.63;1.10;;;;;;;7.03;61.34;94926.94;5011563;28;20072;-72
2021/05/06 02:25:49;;;;;;;2.90;1.40;;;;;;;7.36;60.31;94940.22;5010344;28;20443;-72
2021/05/06 02:28:15;;;;;;;7.78;1.38;;;;;;;7.30;59.85;94935.00;5010144;28;20042;-72
2021/05/06 02:30:41;;;;;;;2.55;1.13;;;;;;;7.41;59.88;94932.97;5010306;28;20137;-72
2021/05/06 02:33:08;;;;;;;1.48;1.00;;;;;;;7.31;59.34;94927.84;5010206;28;20044;-71
2021/05/06 02:35:35;;;;;;;2.78;1.27;;;;;;;7.42;58.99;94931.13;5012222;28;20539;-72
2021/05/06 02:38:02;;;;;;;2.67;1.27;;;;;;;7.60;59.04;94935.59;5009922;28;20126;-71
2021/05/06 02:40:28;;;;;;;2.67;1.00;;;;;;;7.92;58.88;94926.84;5010019;28;20038;-71
2021/05/06 02:42:53;;;;;;;7.28;1.73;;;;;;;7.69;59.06;94923.28;5010020;28;20065;-73
2021/05/06 02:45:18;;;;;;;4.53;1.20;;;;;;;7.95;58.71;94928.94;5010128;28;20034;-72
2021/05/06 02:47:44;;;;;;;4.30;1.15;;;;;;;8.18;58.90;94926.41;5009933;28;20025;-72
2021/05/06 02:50:22;;;;;;;3.78;1.30;;;;;;;8.29;58.28;94923.28;5011743;28;20026;-72
2021/05/06 02:52:58;;;;;;;6.78;1.83;;;;;;;8.23;58.44;94911.19;5009551;28;20042;-72
2021/05/06 03:03:17;;;;;;;1.92;1.13;;;;;;;8.44;59.86;94924.84;5009669;28;20111;-73
2021/05/06 03:05:47;;;;;;;4.78;1.42;;;;;;;8.34;60.30;94909.94;5009943;28;20034;-69
2021/05/06 03:08:19;;;;;;;2.60;1.10;;;;;;;8.06;61.34;94895.88;5011842;28;20022;-71
2021/05/06 03:24:28;;;;;;;5.15;1.50;;;;;;;8.41;60.78;94919.38;5009778;28;20038;-73
2021/05/06 03:26:54;;;;;;;4.13;1.05;;;;;;;8.33;60.61;94926.88;5009239;28;20026;-74
2021/05/06 03:35:29;;;;;;;2.83;1.30;;;;;;;7.77;62.36;94922.59;5008753;28;20399;-73
2021/05/06 04:18:23;;;;;;;4.78;1.80;;;;;;;7.60;67.55;94932.19;4977508;28;20073;-72
2021/05/06 04:37:06;;;;;;;4.07;1.65;;;;;;;8.47;64.01;94915.53;5008298;28;20515;-71
2021/05/06 04:39:42;;;;;;;2.80;1.27;;;;;;;8.64;63.12;94917.59;5008540;28;20038;-72
2021/05/06 04:43:10;;;;;;;4.03;1.40;;;;;;;8.56;63.02;94911.13;5008348;28;20037;-72
2021/05/06 04:55:47;;;;;;;4.85;1.80;;;;;;;9.65;61.66;94919.84;5012102;28;20045;-72
2021/05/06 05:03:48;;;;;;;4.38;1.50;;;;;;;10.24;59.32;94909.88;5011770;28;20110;-71
2021/05/06 05:06:15;;;;;;;4.90;1.70;;;;;;;10.44;58.77;94924.50;5012031;28;20088;-72
2021/05/06 05:08:48;;;;;;;3.50;1.60;;;;;;;10.55;58.03;94919.69;5013568;28;20053;-71
2021/05/06 05:27:12;;;;;;;3.85;1.42;;;;;;;11.11;56.14;94929.50;5011486;28;20041;-60
2021/05/06 05:29:37;;;;;;;3.65;1.73;;;;;;;11.08;55.47;94919.47;5010747;28;20029;-71
2021/05/06 05:32:03;;;;;;;4.07;1.83;;;;;;;11.05;55.07;94919.28;5014633;28;20514;-66
2021/05/06 05:36:56;;;;;;;3.92;1.60;;;;;;;9.53;57.36;94909.00;5031108;28;20029;-77
2021/05/06 05:39:39;;;;;;;4.25;1.60;;;;;;;9.66;57.41;94931.25;5031060;28;20037;-72
2021/05/06 05:42:18;;;;;;;3.92;1.33;;;;;;;9.47;57.91;94924.25;5046341;28;20719;-76
2021/05/06 05:55:06;;;;;;;2.20;1.60;;;;;;;10.26;54.09;94925.50;5030823;28;20048;-71
2021/05/06 05:57:32;;;;;;;3.50;1.30;;;;;;;10.36;54.09;94912.72;5029263;28;20042;-69
2021/05/06 05:59:57;;;;;;;6.15;1.77;;;;;;;10.50;52.61;94920.59;5030605;28;20044;-69
2021/05/06 06:02:22;;;;;;;5.47;1.60;;;;;;;11.03;51.83;94918.84;5032582;28;20118;-70
2021/05/06 06:04:48;;;;;;;4.07;1.40;;;;;;;11.51;51.59;94908.00;5031869;28;20033;-68
2021/05/06 06:07:13;;;;;;;10.70;2.25;;;;;;;11.73;50.08;94885.75;5031927;28;20373;-67
2021/05/06 06:09:39;;;;;;;5.70;1.52;;;;;;;11.99;48.54;94903.59;5030564;28;20669;-68
2021/05/06 06:12:04;;;;;;;4.20;1.50;;;;;;;11.59;48.45;94875.28;5030048;28;20041;-69
2021/05/06 06:15:16;;;;;;;5.13;2.10;;;;;;;11.31;47.75;94861.53;5032301;28;20475;-70
2021/05/06 06:17:18;;;;;;;8.15;2.00;;;;;;;10.86;50.10;94917.72;5027466;28;20046;-72
2021/05/06 06:19:49;;;;;;;7.72;1.70;;;;;;;10.82;48.20;94900.81;5045692;28;20040;-69
2021/05/06 06:22:17;;;;;;;3.15;1.50;;;;;;;9.61;50.55;94913.56;5030050;28;20472;-70
2021/05/06 06:24:42;;;;;;;5.93;2.00;;;;;;;10.53;49.74;94917.31;5029167;28;20632;-71
2021/05/06 06:27:08;;;;;;;4.68;1.60;;;;;;;10.79;48.82;94916.59;5030437;28;20038;-71
2021/05/06 06:29:35;;;;;;;7.38;1.45;;;;;;;11.23;47.69;94912.13;5031755;28;20028;-71
2021/05/06 06:32:02;;;;;;;9.60;1.98;;;;;;;11.06;47.77;94897.72;5029810;28;20068;-69
2021/05/06 06:34:28;;;;;;;9.00;1.70;;;;;;;10.59;48.54;94897.44;5030012;28;20033;-71
2021/05/06 06:36:53;;;;;;;3.65;1.55;;;;;;;11.17;47.66;94890.19;5029505;28;20036;-68
2021/05/06 06:39:19;;;;;;;5.72;1.88;;;;;;;10.62;48.91;94874.78;5045034;28;20037;-69
2021/05/06 06:41:45;;;;;;;9.35;1.67;;;;;;;11.24;46.82;94892.38;5029924;28;20463;-70
2021/05/06 06:44:13;;;;;;;7.00;1.83;;;;;;;11.62;46.27;94892.53;5030512;28;20038;-70
2021/05/06 06:46:39;;;;;;;7.75;1.35;;;;;;;11.34;46.32;94882.19;5029898;28;20033;-69
2021/05/06 06:49:04;;;;;;;5.85;1.80;;;;;;;11.93;44.07;94877.13;5029448;28;20045;-69
2021/05/06 06:51:30;;;;;;;6.15;1.88;;;;;;;11.42;45.85;94883.28;5029145;28;20022;-68
2021/05/06 06:53:56;;;;;;;7.65;1.65;;;;;;;10.93;46.78;94890.63;5029666;28;20112;-68
2021/05/06 06:56:21;;;;;;;3.78;1.40;;;;;;;10.99;44.48;94868.09;5031523;28;20021;-69
2021/05/06 06:58:51;;;;;;;4.13;1.25;;;;;;;12.11;44.87;94861.03;5029275;28;20068;-69
2021/05/06 07:01:17;;;;;;;7.35;1.77;;;;;;;11.73;43.35;94866.31;5029002;28;20057;-68
2021/05/06 07:03:44;;;;;;;3.28;1.15;;;;;;;11.45;44.26;94867.44;5029537;28;20144;-68
2021/05/06 07:06:10;;;;;;;5.25;1.67;;;;;;;12.03;42.28;94862.66;5029660;28;20083;-68
2021/05/06 07:08:38;;;;;;;3.92;1.55;;;;;;;11.59;43.07;94861.94;5030813;28;20021;-69
2021/05/06 07:11:07;;;;;;;7.65;1.80;;;;;;;11.37;41.84;94851.50;5029279;28;20579;-68
2021/05/06 07:13:32;;;;;;;5.28;1.35;;;;;;;11.71;42.74;94838.09;5027868;28;20048;-69
2021/05/06 07:16:01;;;;;;;3.42;1.80;;;;;;;11.66;42.07;94834.81;5029406;28;20407;-68
2021/05/06 07:18:27;;;;;;;3.45;1.25;;;;;;;11.10;43.26;94849.94;5028851;28;20041;-69
2021/05/06 07:20:53;;;;;;;4.03;1.70;;;;;;;11.45;43.83;94838.16;5029139;28;20069;-69
2021/05/06 07:23:21;;;;;;;3.00;1.45;;;;;;;12.35;43.15;94829.25;5030591;28;20586;-68
2021/05/06 07:25:53;;;;;;;3.88;1.60;;;;;;;12.94;40.22;94818.50;5029030;28;20144;-68
2021/05/06 07:28:22;;;;;;;5.88;1.58;;;;;;;12.71;40.33;94814.59;5028951;28;20033;-68
2021/05/06 07:30:50;;;;;;;5.82;1.40;;;;;;;13.76;40.07;94802.66;5028958;28;20050;-69
2021/05/06 07:33:16;;;;;;;4.43;1.70;;;;;;;11.64;41.60;94792.53;5028601;28;20044;-68
2021/05/06 07:35:42;;;;;;;6.00;1.38;;;;;;;12.23;41.83;94813.16;5030749;28;20033;-69
2021/05/06 07:38:08;;;;;;;4.20;1.30;;;;;;;11.55;42.42;94814.94;5027388;28;20042;-69
2021/05/06 07:40:34;;;;;;;4.45;1.60;;;;;;;11.91;41.59;94814.56;5028726;28;20046;-70
2021/05/06 07:43:00;;;;;;;5.40;1.40;;;;;;;11.78;41.28;94789.66;5028548;28;20034;-70
2021/05/06 07:45:26;;;;;;;4.78;1.38;;;;;;;11.22;42.75;94796.06;5028635;28;20033;-70
2021/05/06 07:47:51;;;;;;;3.03;1.17;;;;;;;11.49;42.93;94794.91;5028225;28;20022;-70
2021/05/06 07:50:18;;;;;;;3.00;1.42;;;;;;;11.18;44.34;94801.25;5030186;28;20164;-70
2021/05/06 07:52:44;;;;;;;4.22;1.20;;;;;;;12.46;42.82;94786.97;5028168;28;20076;-69
2021/05/06 07:55:11;;;;;;;4.43;1.40;;;;;;;12.88;39.91;94787.00;5028542;28;20045;-70
2021/05/06 07:57:37;;;;;;;4.82;1.58;;;;;;;11.26;42.70;94789.81;5028314;28;20048;-69
2021/05/06 08:00:18;;;;;;;4.63;1.40;;;;;;;11.39;44.93;94780.84;5028496;28;20042;-69
2021/05/06 08:02:46;;;;;;;5.25;1.52;;;;;;;11.64;43.57;94768.53;5043780;28;20430;-70
2021/05/06 08:05:11;;;;;;;3.72;1.65;;;;;;;12.29;42.34;94777.22;5030365;28;20096;-70
2021/05/06 08:07:37;;;;;;;4.00;1.30;;;;;;;13.03;40.88;94767.69;5028281;28;20396;-69
2021/05/06 08:10:04;;;;;;;6.13;1.58;;;;;;;13.19;39.61;94774.00;5028191;28;20463;-70
2021/05/06 08:12:29;;;;;;;5.80;1.73;;;;;;;14.08;38.58;94768.16;5028136;28;20041;-70
2021/05/06 08:14:55;;;;;;;6.07;1.30;;;;;;;14.86;36.93;94775.09;5028246;28;20513;-70
2021/05/06 08:17:20;;;;;;;4.72;1.60;;;;;;;14.30;36.95;94766.91;5029942;28;20531;-70
2021/05/06 08:19:47;;;;;;;5.28;1.77;;;;;;;14.61;36.73;94744.16;5028010;28;20092;-69
2021/05/06 08:22:13;;;;;;;6.90;1.63;;;;;;;15.40;35.93;94753.19;5031231;28;20045;-70
2021/05/06 08:24:39;;;;;;;5.05;1.48;;;;;;;15.65;34.78;94764.59;5032361;28;20037;-70
2021/05/06 08:27:04;;;;;;;3.75;1.50;;;;;;;15.96;35.06;94763.81;5032001;28;20041;-71
2021/05/06 08:29:30;;;;;;;4.60;1.45;;;;;;;12.83;39.15;94758.59;5034208;28;20037;-70
2021/05/06 08:31:55;;;;;;;5.88;1.45;;;;;;;12.10;41.22;94753.63;5031934;28;20064;-69
2021/05/06 08:34:21;;;;;;;5.57;1.75;;;;;;;11.47;43.00;94746.53;5032047;28;20041;-69
2021/05/06 08:36:46;;;;;;;4.68;1.30;;;;;;;12.31;42.24;94747.53;5031718;28;20387;-69
2021/05/06 08:39:12;;;;;;;3.97;1.45;;;;;;;11.84;41.77;94748.44;5031587;28;20511;-69
2021/05/06 08:41:39;;;;;;;3.72;1.58;;;;;;;13.24;40.42;94733.75;5033598;28;20471;-70
2021/05/06 08:44:06;;;;;;;4.25;1.40;;;;;;;12.06;42.48;94747.38;5031946;28;20099;-69
2021/05/06 08:46:36;;;;;;;6.35;1.60;;;;;;;12.48;40.80;94742.84;5031849;28;20034;-70
2021/05/06 08:49:04;;;;;;;6.40;1.80;;;;;;;13.36;40.17;94743.69;5031552;28;20045;-70
2021/05/06 08:51:29;;;;;;;7.07;1.65;;;;;;;13.81;39.06;94734.06;5031476;28;20418;-70
2021/05/06 08:53:55;;;;;;;4.05;1.65;;;;;;;13.72;39.83;94737.63;5031849;28;20025;-70
2021/05/06 08:56:21;;;;;;;3.50;1.40;;;;;;;14.15;37.04;94735.50;5033790;28;20026;-71
2021/05/06 08:58:46;;;;;;;3.30;1.20;;;;;;;15.23;36.53;94729.41;5030130;28;20037;-71
2021/05/06 09:01:12;;;;;;;2.33;1.40;;;;;;;14.09;37.96;94720.81;5031509;28;20033;-69
2021/05/06 09:03:37;;;;;;;5.40;1.65;;;;;;;14.41;37.21;94703.81;5031352;28;20033;-69
2021/05/06 09:06:21;;;;;;;9.18;1.80;;;;;;;13.47;39.16;94712.78;5031518;28;20368;-70
2021/05/06 09:08:53;;;;;;;5.80;1.80;;;;;;;13.22;40.11;94733.31;5031359;28;20068;-70
2021/05/06 09:11:34;;;;;;;4.07;1.38;;;;;;;13.10;41.07;94733.22;5032984;28;20029;-69
2021/05/06 09:14:08;;;;;;;2.65;1.73;;;;;;;13.56;40.09;94734.03;5030117;28;20060;-68
2021/05/06 09:16:39;;;;;;;5.40;1.65;;;;;;;14.78;37.83;94747.31;5031154;28;20029;-68
2021/05/06 09:19:06;;;;;;;6.70;2.60;;;;;;;13.98;39.24;94748.00;5046306;28;20045;-70
2021/05/06 09:21:34;;;;;;;15.90;2.47;;;;;;;12.79;40.67;94704.31;5030894;28;20029;-69
2021/05/06 09:24:02;;;;;;;8.10;2.45;;;;;;;13.27;40.08;94738.44;5031375;28;20472;-72
2021/05/06 09:26:28;;;;;;;4.28;1.73;;;;;;;12.45;41.01;94727.53;5033304;28;20056;-72
2021/05/06 09:28:54;;;;;;;10.90;2.38;;;;;;;12.86;40.15;94720.59;5031026;28;20068;-69
2021/05/06 09:31:22;;;;;;;7.35;1.92;;;;;;;13.92;38.15;94738.66;5030807;28;20045;-68
2021/05/06 09:33:49;;;;;;;3.97;1.40;;;;;;;13.13;40.03;94727.25;5031022;28;20038;-73
2021/05/06 09:36:20;;;;;;;4.65;1.30;;;;;;;13.51;39.55;94724.38;5031148;28;20033;-70
2021/05/06 09:38:50;;;;;;;3.23;1.37;;;;;;;14.05;38.04;94728.72;5030734;28;20576;-72
2021/05/06 09:41:19;;;;;;;5.00;1.58;;;;;;;15.90;35.80;94713.47;5048062;28;20973;-75
2021/05/06 09:43:45;;;;;;;5.75;1.73;;;;;;;17.01;34.76;94725.47;5030885;28;20057;-74
2021/05/06 09:46:31;;;;;;;3.90;1.55;;;;;;;17.77;33.27;94719.56;5030966;28;20495;-72
2021/05/06 09:49:08;;;;;;;5.43;2.20;;;;;;;18.08;31.08;94719.28;5029904;28;20122;-67
2021/05/06 09:51:46;;;;;;;2.53;1.35;;;;;;;16.94;34.20;94722.66;5030266;28;20037;-64
2021/05/06 09:54:32;;;;;;;4.78;1.80;;;;;;;16.79;33.34;94704.72;5030634;28;20499;-62
2021/05/06 09:57:05;;;;;;;3.00;1.10;;;;;;;17.50;33.21;94700.63;5030187;28;20380;-63
2021/05/06 09:59:38;;;;;;;2.50;1.40;;;;;;;17.27;32.73;94718.66;5032498;28;20049;-62
2021/05/06 10:02:10;;;;;;;3.58;1.60;;;;;;;17.02;32.99;94713.59;5045829;28;20037;-62
2021/05/06 10:04:37;;;;;;;4.40;1.55;;;;;;;17.28;32.08;94715.63;5030499;28;20450;-63
2021/05/06 10:07:22;;;;;;;5.32;1.60;;;;;;;16.18;34.94;94718.72;5030305;28;20073;-62
2021/05/06 10:09:52;;;;;;;4.10;1.42;;;;;;;16.94;34.52;94725.34;5045575;28;20037;-62
2021/05/06 10:12:18;;;;;;;3.10;1.23;;;;;;;17.14;33.09;94716.13;5029831;28;20041;-68
2021/05/06 10:14:47;;;;;;;3.88;1.60;;;;;;;14.17;36.39;94711.88;5030424;28;20029;-69
2021/05/06 10:17:20;;;;;;;4.50;1.15;;;;;;;12.68;40.12;94714.63;5047392;28;20021;-69
2021/05/06 10:19:46;;;;;;;4.97;1.40;;;;;;;13.77;39.05;94709.91;5029876;28;20519;-70
2021/05/06 10:22:15;;;;;;;3.65;1.15;;;;;;;12.88;40.43;94701.56;5028806;28;20042;-70
2021/05/06 10:24:42;;;;;;;7.20;1.67;;;;;;;13.40;40.07;94722.44;5030302;28;20037;-70
2021/05/06 10:27:16;;;;;;;4.10;1.65;;;;;;;14.63;38.76;94717.81;5028686;28;20128;-69
2021/05/06 10:29:42;;;;;;;3.15;1.52;;;;;;;15.26;37.72;94716.13;5031990;28;20491;-69
2021/05/06 10:32:10;;;;;;;4.07;1.48;;;;;;;14.39;38.42;94721.31;5045090;28;20038;-69
2021/05/06 10:34:36;;;;;;;5.47;1.45;;;;;;;14.28;38.86;94723.69;5029984;28;20045;-69
2021/05/06 10:37:02;;;;;;;4.43;1.60;;;;;;;13.66;39.85;94740.84;5029701;28;20759;-69
2021/05/06 10:39:54;;;;;;;2.65;1.23;;;;;;;12.99;41.45;94742.75;5029678;28;20124;-69
2021/05/06 10:42:26;;;;;;;3.85;1.60;;;;;;;12.99;44.51;94748.88;5027355;28;20049;-70
2021/05/06 10:45:02;;;;;;;4.25;1.50;;;;;;;12.00;47.25;94766.53;5029028;28;20117;-69
2021/05/06 10:47:45;;;;;;;3.20;1.20;;;;;;;13.09;45.85;94746.91;5031469;28;20026;-69
2021/05/06 10:50:15;;;;;;;13.30;1.65;;;;;;;13.45;44.40;94757.72;5029876;28;20049;-70
2021/05/06 10:52:45;;;;;;;5.80;1.20;;;;;;;13.29;44.46;94748.00;5028048;28;20586;-69
2021/05/06 10:55:14;;;;;;;1.90;1.45;;;;;;;12.82;46.13;94743.69;5044898;28;20069;-69
2021/05/06 10:57:40;;;;;;;4.55;1.55;;;;;;;11.09;51.52;94725.94;5029246;28;20124;-68
2021/05/06 11:00:20;;;;;;;3.08;1.30;;;;;;;11.15;54.41;94769.91;5027825;28;20041;-69
2021/05/06 11:02:49;;;;;;;4.53;1.58;;;;;;;10.98;55.52;94756.66;5029079;28;20037;-69
2021/05/06 11:05:18;;;;;;;7.22;1.63;;;;;;;11.54;56.44;94766.22;5046434;28;20391;-71
2021/05/06 11:08:04;;;;;;;3.53;1.30;;;;;;;11.45;57.11;94774.22;5028955;28;20083;-67
2021/05/06 11:10:50;;;;;;;4.55;1.40;;;;;;;12.03;55.62;94765.88;5027160;28;20549;-69
2021/05/06 11:13:25;;;;;;;3.65;1.20;;;;;;;11.43;57.44;94757.81;5020910;28;20479;-70
2021/05/06 11:15:51;;;;;;;3.92;1.15;;;;;;;12.58;55.66;94754.25;5029448;28;20117;-71
2021/05/06 11:18:39;;;;;;;3.17;1.08;;;;;;;13.03;52.37;94759.69;5028561;28;20544;-69
2021/05/06 11:21:04;;;;;;;2.95;1.42;;;;;;;12.29;55.78;94763.88;5027540;28;20038;-68
2021/05/06 11:23:32;;;;;;;4.28;1.35;;;;;;;12.34;55.99;94769.03;5030723;28;20025;-70
2021/05/06 11:26:06;;;;;;;2.92;1.17;;;;;;;11.54;57.43;94765.44;5043827;28;20399;-69
2021/05/06 11:28:31;;;;;;;1.70;1.13;;;;;;;12.09;58.05;94762.72;5028362;28;20484;-68
2021/05/06 11:30:58;;;;;;;1.92;1.10;;;;;;;12.70;55.69;94743.66;5028615;28;20073;-70
2021/05/06 11:33:28;;;;;;;2.15;1.10;;;;;;;12.41;57.24;94763.16;5028636;28;20033;-70
2021/05/06 11:36:17;;;;;;;2.28;0.93;;;;;;;11.22;58.85;94754.25;5028684;28;20120;-69
2021/05/06 11:38:52;;;;;;;1.40;0.93;;;;;;;10.40;62.98;94756.03;5029901;28;20052;-65
2021/05/06 11:41:34;;;;;;;3.25;1.42;;;;;;;11.16;60.42;94752.88;5029098;28;20041;-70
2021/05/06 11:44:05;;;;;;;2.15;1.15;;;;;;;12.22;58.75;94744.91;5028799;28;20083;-70
2021/05/06 11:46:37;;;;;;;2.80;1.27;;;;;;;12.43;57.83;94732.38;5027077;28;20708;-70
2021/05/06 11:49:04;;;;;;;;;;;;;;;11.03;60.54;94749.28;5028470;28;20039;-69
2021/05/06 11:51:34;;;;;;;2.55;1.30;;;;;;;12.26;58.73;94724.50;5027869;28;20272;-69
2021/05/06 11:54:13;;;;;;;2.90;1.30;;;;;;;12.44;57.25;94723.28;5028211;28;20025;-69
2021/05/06 11:56:55;;;;;;;3.05;1.63;;;;;;;11.28;59.59;94718.38;5029385;28;20036;-70
2021/05/06 11:59:23;;;;;;;4.47;1.20;;;;;;;10.50;63.20;94728.34;5044037;28;20053;-69
2021/05/06 12:01:50;;;;;;;3.08;1.00;;;;;;;11.38;61.67;94701.28;5028220;28;20033;-70
2021/05/06 12:04:34;;;;;;;1.80;1.00;;;;;;;12.05;59.24;94694.38;5027076;28;20124;-69
2021/05/06 12:07:12;;;;;;;2.55;1.10;;;;;;;12.26;59.55;94708.50;5028085;28;20038;-69
2021/05/06 12:09:37;;;;;;;3.13;1.50;;;;;;;13.08;57.32;94691.97;5028332;28;20034;-69
2021/05/06 12:12:03;;;;;;;3.88;1.23;;;;;;;14.13;56.81;94700.31;5043489;28;20518;-70
2021/05/06 12:14:33;;;;;;;2.75;1.33;;;;;;;12.89;54.44;94661.19;5045539;28;20029;-69
2021/05/06 12:16:59;;;;;;;2.15;1.23;;;;;;;12.79;56.07;94700.88;5028366;28;20038;-70
2021/05/06 12:19:25;;;;;;;2.65;1.10;;;;;;;11.36;59.89;94698.13;5028415;28;20055;-69
2021/05/06 12:21:55;;;;;;;2.35;1.10;;;;;;;13.16;57.86;94683.09;5028195;28;20403;-69
2021/05/06 12:24:26;;;;;;;3.55;1.77;;;;;;;13.01;53.45;94682.59;5028401;28;20045;-69
2021/05/06 12:26:51;;;;;;;3.08;1.45;;;;;;;11.48;58.30;94634.34;5028036;28;20139;-70
2021/05/06 12:29:24;;;;;;;4.63;1.73;;;;;;;12.89;56.45;94665.75;5030052;28;20022;-70
2021/05/06 12:31:51;;;;;;;2.33;1.20;;;;;;;12.05;56.71;94643.75;5028038;28;20096;-70
2021/05/06 12:34:19;;;;;;;1.75;0.95;;;;;;;12.73;57.38;94649.59;5028226;28;20088;-70
2021/05/06 12:36:52;;;;;;;4.30;1.30;;;;;;;13.91;56.14;94646.16;5043185;28;20045;-71
2021/05/06 12:39:20;;;;;;;2.35;1.35;;;;;;;14.49;53.03;94622.66;5025849;28;20092;-69
2021/05/06 12:42:00;;;;;;;2.92;1.30;;;;;;;12.76;55.88;94635.59;5026378;28;20029;-69
2021/05/06 12:44:37;;;;;;;3.40;1.60;;;;;;;13.22;55.21;94639.84;5028753;28;20128;-69
2021/05/06 12:47:27;;;;;;;3.78;1.83;;;;;;;13.07;56.20;94634.34;5027962;28;20037;-70
2021/05/06 12:50:22;;;;;;;3.92;1.40;;;;;;;14.03;54.01;94624.75;5026795;28;20120;-70
2021/05/06 12:52:56;;;;;;;3.58;1.45;;;;;;;14.96;52.67;94608.56;5026536;28;20475;-70
2021/05/06 12:55:29;;;;;;;2.15;1.25;;;;;;;15.66;51.19;94605.31;5026571;28;20045;-69
2021/05/06 12:58:08;;;;;;;2.17;1.15;;;;;;;16.30;48.92;94600.53;5027602;28;20487;-71
2021/05/06 13:00:36;;;;;;;2.92;1.33;;;;;;;15.55;46.83;94559.44;5027892;28;20041;-70
2021/05/06 13:03:03;;;;;;;2.25;1.23;;;;;;;16.05;47.50;94597.31;5027727;28;20721;-70
2021/05/06 13:05:30;;;;;;;3.10;1.20;;;;;;;16.37;48.81;94571.91;5028339;28;20076;-70
2021/05/06 13:07:56;;;;;;;3.17;1.20;;;;;;;16.35;47.46;94570.72;5029969;28;20029;-70
2021/05/06 13:10:37;;;;;;;2.22;1.25;;;;;;;16.58;47.57;94576.13;5031372;28;20100;-70
2021/05/06 13:13:04;;;;;;;1.75;1.20;;;;;;;16.64;47.92;94572.81;5031209;28;20029;-70
2021/05/06 13:15:43;;;;;;;1.85;1.05;;;;;;;15.46;47.54;94545.47;5031230;28;20041;-70
2021/05/06 13:18:10;;;;;;;2.85;1.42;;;;;;;15.56;50.21;94566.38;5030778;28;20066;-70
2021/05/06 13:20:36;;;;;;;2.65;1.23;;;;;;;13.43;55.27;94562.25;5032955;28;20021;-69
2021/05/06 13:23:05;;;;;;;2.90;1.17;;;;;;;12.79;57.18;94573.53;5030812;28;20041;-69
2021/05/06 13:25:50;;;;;;;3.13;1.38;;;;;;;12.52;56.98;94577.59;5031064;28;20042;-70
2021/05/06 13:28:18;;;;;;;2.63;1.42;;;;;;;12.00;58.82;94570.06;5030784;28;20038;-69
2021/05/06 13:30:45;;;;;;;3.15;1.65;;;;;;;12.55;58.69;94550.28;5031249;28;20036;-70
2021/05/06 13:33:18;;;;;;;2.25;1.20;;;;;;;11.51;59.86;94553.00;5031059;28;20137;-70
2021/05/06 13:36:04;;;;;;;6.38;1.63;;;;;;;12.27;60.09;94549.28;5031186;28;20454;-69
2021/05/06 13:38:48;;;;;;;3.05;1.45;;;;;;;11.34;62.27;94537.91;5032517;28;20403;-71
2021/05/06 13:41:14;;;;;;;2.58;1.48;;;;;;;11.46;61.97;94516.69;5031415;28;20061;-71
2021/05/06 13:43:40;;;;;;;3.22;1.48;;;;;;;11.60;63.17;94514.56;5030814;28;20079;-70
2021/05/06 13:46:10;;;;;;;3.80;1.63;;;;;;;12.18;64.75;94515.50;5045833;28;20499;-68
2021/05/06 13:48:36;;;;;;;2.90;1.83;;;;;;;11.12;62.20;94491.88;5030563;28;20060;-68
2021/05/06 13:51:03;;;;;;;3.10;1.70;;;;;;;11.65;65.58;94511.69;5045987;28;20030;-69
2021/05/06 13:53:29;;;;;;;3.90;1.88;;;;;;;12.03;67.02;94496.66;5032450;28;20640;-69
2021/05/06 13:55:54;;;;;;;4.57;1.80;;;;;;;12.32;66.83;94493.88;5030163;28;20068;-69
2021/05/06 13:58:19;;;;;;;3.13;1.73;;;;;;;12.42;66.92;94474.00;5030236;28;20048;-70
2021/05/06 14:00:45;;;;;;;5.95;2.10;;;;;;;12.44;68.09;94443.22;5045386;28;20041;-70
2021/05/06 14:03:10;;;;;;;6.07;2.17;;;;;;;12.45;67.64;94436.00;5029499;28;20038;-69
2021/05/06 14:05:36;;;;;;;4.65;1.90;;;;;;;12.17;65.48;94425.94;5032084;28;20112;-69
2021/05/06 14:08:01;;;;;;;3.35;1.88;;;;;;;12.16;66.34;94424.41;5029887;28;20041;-69
2021/05/06 14:10:27;;;;;;;8.40;2.15;;;;;;;12.22;65.16;94448.97;5030015;28;20040;-70
2021/05/06 14:12:53;;;;;;;4.25;1.90;;;;;;;12.37;66.59;94445.66;5029358;28;20387;-70
2021/05/06 14:15:18;;;;;;;4.45;1.92;;;;;;;12.53;65.17;94445.00;5029364;28;20033;-69
2021/05/06 14:17:43;;;;;;;3.72;2.00;;;;;;;12.66;65.20;94443.91;5030925;28;20028;-70
2021/05/06 14:20:10;;;;;;;4.07;2.03;;;;;;;12.65;63.96;94450.34;5028358;28;20065;-71
2021/05/06 14:22:35;;;;;;;2.83;1.70;;;;;;;11.39;65.01;94463.19;5029096;28;20071;-69
2021/05/06 14:25:00;;;;;;;3.63;1.73;;;;;;;10.51;66.69;94480.75;5029713;28;20038;-70
2021/05/06 14:27:26;;;;;;;4.35;1.90;;;;;;;9.74;73.03;94476.38;5029672;28;20038;-70
2021/05/06 14:29:51;;;;;;;4.20;1.83;;;;;;;9.31;74.21;94432.03;5045102;28;20029;-71
2021/05/06 14:32:16;;;;;;;3.83;2.22;;;;;;;10.14;71.91;94460.97;5047241;28;20038;-73
2021/05/06 14:34:42;;;;;;;6.45;2.00;;;;;;;10.21;70.32;94485.19;5030130;28;20038;-70
2021/05/06 14:37:07;;;;;;;3.05;2.00;;;;;;;10.04;73.01;94456.00;5029623;28;20042;-76
2021/05/06 14:39:33;;;;;;;5.15;2.30;;;;;;;10.47;71.00;94466.50;5030867;28;20038;-80
2021/05/06 14:41:58;;;;;;;3.78;2.53;;;;;;;10.45;72.57;94459.97;5028516;28;20056;-72
2021/05/06 14:44:23;;;;;;;5.65;2.80;;;;;;;10.98;72.99;94472.69;5031777;28;20021;-73
2021/05/06 14:46:49;;;;;;;5.97;2.92;;;;;;;11.26;73.70;94454.34;5030003;28;20041;-80
2021/05/06 14:49:14;;;;;;;7.78;3.50;;;;;;;11.61;74.62;94441.53;5029785;28;20045;-72
2021/05/06 14:51:39;;;;;;;5.13;3.00;;;;;;;11.83;74.42;94440.44;5029368;28;20491;-73
2021/05/06 14:54:05;;;;;;;9.98;4.28;;;;;;;12.01;73.56;94457.00;5029785;28;20038;-70
2021/05/06 14:56:30;;;;;;;4.85;3.40;;;;;;;12.18;73.88;94450.72;5030440;28;20079;-71
2021/05/06 14:58:56;;;;;;;8.55;3.75;;;;;;;12.22;74.16;94440.97;5044592;28;20052;-70
2021/05/06 15:01:21;;;;;;;8.10;4.47;;;;;;;12.29;74.94;94438.53;5028071;28;20030;-70
2021/05/06 15:03:47;;;;;;;6.03;4.00;;;;;;;12.30;75.47;94442.75;5029294;28;20141;-70
2021/05/06 15:06:12;;;;;;;7.70;4.30;;;;;;;12.18;76.04;94432.88;5044621;28;20686;-69
2021/05/06 15:08:42;;;;;;;8.65;5.07;;;;;;;12.12;75.06;94446.72;5029650;28;20065;-80
2021/05/06 15:11:10;;;;;;;8.00;5.50;;;;;;;12.16;76.95;94448.38;5029412;28;20045;-70